Time;durP1;ratioP1;P1;durP2;ratioP2;P2;SDS_P1;SDS_P2;PMS_P1;PMS_P2;Temp;Humidity;BMP_temperature;BMP_pressure;BME280_temperature;BME280_humidity;BME280_pressure;Samples;Min_cycle;Max_cycle;Signal;HPM_P1;HPM_P2
2024/03/02 00:00:22;;;;;;;55.00;31.10;;;;;;;2.89;65.33;99977.66;107478;1258;72674;-40
2024/03/02 00:02:49;;;;;;;51.60;31.00;;;;;;;2.88;65.14;99976.82;107412;1256;60363;-40
2024/03/02 00:05:18;;;;;;;56.90;31.10;;;;;;;2.83;65.16;99979.43;107642;1254;60407;-40
2024/03/02 00:07:52;;;;;;;53.90;31.00;;;;;;;2.73;65.51;99980.77;107607;1254;72630;-39
2024/03/02 00:10:20;;;;;;;50.00;30.10;;;;;;;2.58;65.74;99981.27;107557;1254;66496;-40
2024/03/02 00:12:48;;;;;;;53.20;29.90;;;;;;;2.53;66.07;99972.98;107380;1257;72959;-39
2024/03/02 00:15:28;;;;;;;56.10;30.00;;;;;;;2.51;66.32;99970.11;107532;1257;60530;-40
2024/03/02 00:17:56;;;;;;;55.40;30.70;;;;;;;2.44;66.46;99968.08;107617;1254;60457;-40
2024/03/02 00:20:23;;;;;;;53.50;30.70;;;;;;;2.38;66.73;99967.21;107600;1252;73873;-40
2024/03/02 00:22:51;;;;;;;56.70;31.60;;;;;;;2.33;67.09;99963.48;107590;1255;67598;-40
2024/03/02 00:25:19;;;;;;;59.10;29.70;;;;;;;2.28;67.26;99958.96;107525;1255;72695;-39
2024/03/02 00:27:49;;;;;;;56.40;29.40;;;;;;;2.29;67.48;99961.52;107534;1255;60401;-39
2024/03/02 00:30:39;;;;;;;50.40;29.90;;;;;;;2.34;67.53;99960.05;107563;1254;60360;-39
2024/03/02 00:33:07;;;;;;;56.00;30.30;;;;;;;2.32;67.57;99954.90;107499;1260;73901;-39
2024/03/02 00:35:34;;;;;;;54.60;29.60;;;;;;;2.28;67.79;99950.09;107596;1254;66601;-39
2024/03/02 00:38:06;;;;;;;54.10;31.30;;;;;;;2.24;67.93;99943.30;107508;1259;72710;-39
2024/03/02 00:40:33;;;;;;;57.10;30.50;;;;;;;2.20;68.03;99937.96;107526;1255;60408;-39
2024/03/02 00:43:01;;;;;;;51.70;30.40;;;;;;;2.16;67.99;99933.89;107422;1260;60447;-39
2024/03/02 00:45:29;;;;;;;54.10;29.70;;;;;;;2.19;68.10;99938.45;107489;1255;73164;-40
2024/03/02 00:47:57;;;;;;;52.60;31.10;;;;;;;2.23;68.18;99943.19;107403;1254;67585;-39
2024/03/02 00:50:24;;;;;;;54.60;31.10;;;;;;;2.21;68.45;99939.27;107483;1254;72673;-39
2024/03/02 00:52:57;;;;;;;55.30;32.60;;;;;;;2.19;68.78;99937.90;107579;1254;60763;-39
2024/03/02 00:55:25;;;;;;;57.70;33.80;;;;;;;2.14;68.84;99936.38;107606;1259;60396;-39
2024/03/02 00:57:52;;;;;;;59.30;32.50;;;;;;;2.08;69.03;99936.13;107514;1255;73834;-39
2024/03/02 01:00:20;;;;;;;59.30;32.80;;;;;;;2.08;69.26;99936.51;107383;1254;67652;-39
2024/03/02 01:02:48;;;;;;;54.00;32.00;;;;;;;2.10;69.45;99934.29;106756;1256;1003391;-39
2024/03/02 01:05:15;;;;;;;56.70;33.50;;;;;;;2.06;69.57;99932.70;107510;1254;60425;-39
2024/03/02 01:07:43;;;;;;;59.70;32.90;;;;;;;2.00;69.87;99938.76;107477;1255;60549;-39
2024/03/02 01:10:10;;;;;;;63.80;32.90;;;;;;;1.95;70.32;99932.56;107485;1254;73837;-39
2024/03/02 01:12:38;;;;;;;55.70;30.60;;;;;;;1.94;70.40;99932.76;107464;1256;67563;-39
2024/03/02 01:15:07;;;;;;;58.10;33.00;;;;;;;1.98;70.40;99934.84;107493;1254;72494;-38
2024/03/02 01:17:35;;;;;;;49.50;28.20;;;;;;;1.99;70.45;99932.15;107590;1260;59578;-39
2024/03/02 01:20:04;;;;;;;58.90;33.20;;;;;;;1.95;70.64;99935.45;107480;1259;60328;-38
2024/03/02 01:22:32;;;;;;;62.10;34.10;;;;;;;1.91;70.57;99936.80;107557;1254;72753;-38
2024/03/02 01:24:59;;;;;;;57.70;31.80;;;;;;;1.88;70.93;99932.56;107508;1258;67555;-39
2024/03/02 01:27:28;;;;;;;59.00;32.60;;;;;;;1.88;70.81;99929.89;107473;1260;72750;-39
2024/03/02 01:29:55;;;;;;;52.40;32.90;;;;;;;1.90;70.60;99926.86;107513;1253;60396;-38
2024/03/02 01:32:23;;;;;;;59.90;34.10;;;;;;;1.87;70.85;99929.90;107519;1254;60364;-39
2024/03/02 01:34:50;;;;;;;56.70;33.50;;;;;;;1.85;70.94;99929.20;107376;1254;73972;-39
2024/03/02 01:37:17;;;;;;;60.40;31.60;;;;;;;1.80;71.29;99923.64;107474;1254;66268;-39
2024/03/02 01:39:45;;;;;;;56.40;31.70;;;;;;;1.76;71.21;99921.34;107386;1254;71492;-39
2024/03/02 01:42:13;;;;;;;54.10;31.70;;;;;;;1.79;71.22;99914.14;107360;1254;60902;-39
2024/03/02 01:44:41;;;;;;;54.40;32.30;;;;;;;1.82;71.27;99915.23;107506;1259;60295;-39
2024/03/02 01:47:08;;;;;;;61.10;32.60;;;;;;;1.82;71.30;99910.62;107528;1253;73867;-38
2024/03/02 01:49:36;;;;;;;58.10;33.80;;;;;;;1.80;71.53;99910.21;107491;1254;66753;-38
2024/03/02 01:52:03;;;;;;;57.00;31.70;;;;;;;1.77;71.38;99908.23;107461;1259;72674;-39
2024/03/02 01:54:31;;;;;;;59.90;31.70;;;;;;;1.76;71.42;99910.27;107479;1256;60610;-39
2024/03/02 01:56:59;;;;;;;55.00;31.00;;;;;;;1.81;71.40;99915.19;107513;1260;59247;-39
2024/03/02 01:59:26;;;;;;;51.50;32.70;;;;;;;1.86;71.48;99912.38;107517;1254;73798;-38
2024/03/02 02:01:54;;;;;;;55.20;32.20;;;;;;;1.88;71.34;99916.01;107513;1254;66813;-38
2024/03/02 02:04:27;;;;;;;59.70;33.70;;;;;;;1.86;71.55;99914.89;107515;1253;72786;-38
2024/03/02 02:06:54;;;;;;;56.70;33.20;;;;;;;1.83;71.86;99907.09;107501;1254;60194;-38
2024/03/02 02:09:22;;;;;;;60.00;31.50;;;;;;;1.85;71.93;99907.02;107516;1254;60281;-38
2024/03/02 02:11:50;;;;;;;57.90;32.10;;;;;;;1.90;71.86;99900.39;107508;1259;73868;-38
2024/03/02 02:14:18;;;;;;;58.30;33.00;;;;;;;1.92;72.07;99898.52;107490;1253;66859;-39
2024/03/02 02:16:46;;;;;;;56.70;33.20;;;;;;;1.90;71.94;99892.91;107494;1259;73166;-39
2024/03/02 02:19:14;;;;;;;59.00;32.40;;;;;;;1.89;72.23;99892.08;107472;1254;60184;-38
2024/03/02 02:21:44;;;;;;;60.00;31.80;;;;;;;1.88;71.90;99893.44;107548;1255;60287;-39
2024/03/02 02:24:13;;;;;;;57.70;32.00;;;;;;;1.94;71.87;99897.19;107518;1259;72973;-39
2024/03/02 02:26:40;;;;;;;51.90;32.50;;;;;;;1.96;71.66;99896.09;107498;1259;67716;-39
2024/03/02 02:29:08;;;;;;;57.10;32.40;;;;;;;1.93;71.81;99894.84;107473;1254;72705;-39
2024/03/02 02:31:39;;;;;;;62.90;34.30;;;;;;;1.88;71.84;99890.23;107509;1254;60148;-39
2024/03/02 02:34:07;;;;;;;51.80;31.00;;;;;;;1.84;72.30;99890.16;107531;1254;60885;-39
2024/03/02 02:36:34;;;;;;;58.20;31.10;;;;;;;1.86;72.44;99891.90;107494;1254;72550;-39
2024/03/02 02:39:06;;;;;;;54.00;32.30;;;;;;;1.88;72.22;99891.89;107392;1253;66434;-39
2024/03/02 02:41:34;;;;;;;58.10;32.50;;;;;;;1.84;72.51;99895.67;107406;1254;70542;-39
2024/03/02 02:44:01;;;;;;;61.40;34.80;;;;;;;1.80;72.59;99900.06;107506;1254;60399;-39
2024/03/02 02:46:29;;;;;;;57.50;32.00;;;;;;;1.75;72.71;99900.34;107506;1254;60441;-38
2024/03/02 02:48:56;;;;;;;60.40;32.30;;;;;;;1.74;72.63;99900.84;107478;1254;73972;-39
2024/03/02 02:51:25;;;;;;;54.40;32.20;;;;;;;1.75;72.48;99902.36;107619;1254;67701;-40
2024/03/02 02:53:53;;;;;;;52.70;32.40;;;;;;;1.74;72.87;99900.89;107524;1254;73128;-40
2024/03/02 02:56:20;;;;;;;59.60;33.40;;;;;;;1.72;72.88;99903.69;107480;1259;59669;-40
2024/03/02 02:58:48;;;;;;;58.70;32.90;;;;;;;1.70;72.85;99899.12;107629;1257;60341;-40
2024/03/02 03:01:19;;;;;;;63.40;33.10;;;;;;;1.69;72.67;99899.94;107601;1257;73866;-40
2024/03/02 03:03:46;;;;;;;54.60;31.90;;;;;;;1.72;72.84;99898.41;106018;1260;1002974;-40
2024/03/02 03:06:14;;;;;;;61.20;32.20;;;;;;;1.71;72.85;99901.13;107623;1253;72749;-40
2024/03/02 03:08:41;;;;;;;61.30;33.50;;;;;;;1.66;72.90;99900.88;107495;1260;60424;-40
2024/03/02 03:11:09;;;;;;;57.70;33.00;;;;;;;1.59;72.97;99898.09;107634;1254;60421;-40
2024/03/02 03:13:37;;;;;;;55.10;31.80;;;;;;;1.53;73.26;99897.90;107513;1253;73867;-39
2024/03/02 03:16:05;;;;;;;56.80;31.60;;;;;;;1.52;73.14;99898.17;107585;1254;67852;-40
2024/03/02 03:18:33;;;;;;;60.00;33.70;;;;;;;1.53;73.26;99899.29;107657;1254;72981;-39
2024/03/02 03:21:01;;;;;;;54.10;32.00;;;;;;;1.47;73.54;99896.33;107477;1260;60258;-40
2024/03/02 03:23:28;;;;;;;56.00;32.70;;;;;;;1.38;73.71;99890.54;107531;1253;59560;-40
2024/03/02 03:25:56;;;;;;;54.50;31.60;;;;;;;1.31;73.94;99883.70;107619;1254;73888;-39
2024/03/02 03:28:23;;;;;;;53.10;31.30;;;;;;;1.28;74.02;99886.81;106766;1254;1002580;-40
2024/03/02 03:30:50;;;;;;;53.00;32.40;;;;;;;1.23;74.45;99884.15;107493;1254;72697;-40
2024/03/02 03:33:18;;;;;;;51.80;31.60;;;;;;;1.16;74.51;99880.34;107606;1255;60331;-40
2024/03/02 03:35:46;;;;;;;54.00;30.90;;;;;;;1.10;74.97;99882.45;107679;1254;60421;-39
2024/03/02 03:38:14;;;;;;;50.30;29.10;;;;;;;1.08;75.10;99883.79;107605;1254;73321;-39
2024/03/02 03:40:42;;;;;;;54.50;31.00;;;;;;;1.09;75.32;99880.38;107585;1254;68037;-39
2024/03/02 03:43:09;;;;;;;51.10;31.30;;;;;;;1.07;75.42;99882.09;107497;1254;73158;-39
2024/03/02 03:45:37;;;;;;;54.10;31.10;;;;;;;1.04;75.53;99885.17;107589;1254;60424;-39
2024/03/02 03:48:05;;;;;;;52.20;30.60;;;;;;;1.01;75.73;99879.34;107638;1253;60299;-39
2024/03/02 03:50:32;;;;;;;54.90;29.30;;;;;;;1.03;75.77;99880.70;107541;1254;72641;-39
2024/03/02 03:53:00;;;;;;;51.70;30.40;;;;;;;1.05;75.79;99879.30;107415;1254;65350;-39
2024/03/02 03:55:27;;;;;;;53.00;30.60;;;;;;;1.03;75.72;99883.64;107376;1254;70405;-39
2024/03/02 03:57:55;;;;;;;48.20;29.50;;;;;;;1.00;75.98;99884.20;107421;1254;60421;-39
2024/03/02 04:00:23;;;;;;;51.00;30.70;;;;;;;0.98;76.06;99883.35;107537;1260;60315;-39
2024/03/02 04:02:50;;;;;;;50.20;30.10;;;;;;;1.00;75.96;99882.27;107616;1254;73815;-39
2024/03/02 04:05:18;;;;;;;54.50;30.40;;;;;;;1.02;76.05;99882.84;107509;1254;67919;-39
2024/03/02 04:07:45;;;;;;;50.50;31.10;;;;;;;1.00;76.03;99878.60;107375;1254;72486;-39
2024/03/02 04:10:13;;;;;;;51.00;29.90;;;;;;;0.98;76.02;99876.96;107477;1254;60422;-39
2024/03/02 04:12:41;;;;;;;52.00;30.40;;;;;;;0.95;76.22;99875.13;107440;1254;60190;-40
2024/03/02 04:15:09;;;;;;;50.50;29.20;;;;;;;0.95;76.29;99876.20;107507;1254;73824;-39
2024/03/02 04:17:36;;;;;;;52.20;30.50;;;;;;;0.97;76.33;99870.35;107533;1257;65785;-39
2024/03/02 04:20:05;;;;;;;48.10;29.80;;;;;;;0.94;76.34;99873.48;107535;1254;72655;-38
2024/03/02 04:22:34;;;;;;;55.80;31.60;;;;;;;0.92;76.13;99877.35;107566;1254;60399;-39
2024/03/02 04:25:04;;;;;;;38.10;23.20;;;;;;;0.91;76.19;99880.14;107713;1257;60274;-38
2024/03/02 04:27:33;;;;;;;51.20;28.10;;;;;;;0.93;76.13;99880.80;106808;1254;1002339;-39
2024/03/02 04:30:01;;;;;;;50.40;29.90;;;;;;;0.95;76.02;99884.68;107545;1254;67887;-39
2024/03/02 04:32:28;;;;;;;59.30;31.30;;;;;;;0.91;76.12;99881.72;107531;1254;72742;-39
2024/03/02 04:37:53;;;;;;;52.40;29.50;;;;;;;0.89;76.27;99883.36;104304;1290;600317;-38
2024/03/02 04:40:20;;;;;;;52.20;29.40;;;;;;;0.88;76.19;99885.49;106666;1264;60933;-38
2024/03/02 04:42:48;;;;;;;49.80;29.30;;;;;;;0.89;76.17;99883.67;106722;1264;60013;-38
2024/03/02 04:45:15;;;;;;;47.30;29.30;;;;;;;0.89;76.29;99890.29;106747;1264;72206;-38
2024/03/02 04:47:43;;;;;;;54.80;30.80;;;;;;;0.88;76.31;99885.17;106778;1264;67559;-39
2024/03/02 04:50:13;;;;;;;51.70;30.10;;;;;;;0.86;76.40;99884.56;106743;1264;71417;-39
2024/03/02 04:52:41;;;;;;;50.00;28.60;;;;;;;0.87;76.52;99885.78;106760;1262;141199;-39
2024/03/02 04:57:55;;;;;;;54.10;32.00;;;;;;;0.87;76.37;99891.54;106873;1263;73039;-39
2024/03/02 05:00:22;;;;;;;52.60;29.80;;;;;;;0.85;76.49;99891.77;106852;1263;67027;-39
2024/03/02 05:02:51;;;;;;;52.70;31.40;;;;;;;0.85;76.73;99891.08;106839;1264;72808;-39
2024/03/02 05:05:18;;;;;;;51.10;30.30;;;;;;;0.89;76.62;99890.03;106878;1262;59628;-39
2024/03/02 05:07:46;;;;;;;53.30;30.50;;;;;;;0.93;76.52;99892.02;106800;1264;59500;-39
2024/03/02 05:10:14;;;;;;;52.30;31.40;;;;;;;0.95;76.64;99891.46;106773;1266;71829;-39
2024/03/02 05:15:10;;;;;;;49.90;30.20;;;;;;;0.97;76.76;99893.64;106751;1266;73452;-39
2024/03/02 05:17:39;;;;;;;49.00;29.30;;;;;;;1.02;76.75;99893.04;106843;1262;60833;-39
2024/03/02 05:20:10;;;;;;;50.70;29.80;;;;;;;1.08;76.81;99892.40;106980;1263;59979;-39
2024/03/02 05:22:38;;;;;;;51.50;31.40;;;;;;;1.12;76.85;99885.40;106898;1263;73596;-39
2024/03/02 05:25:06;;;;;;;61.90;32.10;;;;;;;1.14;76.84;99893.83;106868;1264;67552;-39
2024/03/02 05:27:33;;;;;;;52.00;29.20;;;;;;;1.15;76.82;99894.71;106889;1263;71771;-39
2024/03/02 05:30:01;;;;;;;52.50;29.50;;;;;;;1.19;76.63;99894.41;106805;1264;60901;-39
2024/03/02 05:32:29;;;;;;;50.20;30.30;;;;;;;1.25;76.72;99896.63;106871;1264;59662;-39
2024/03/02 05:34:56;;;;;;;53.60;31.40;;;;;;;1.29;76.70;99898.25;106883;1266;73056;-39
2024/03/02 05:37:24;;;;;;;54.90;30.80;;;;;;;1.33;76.86;99893.07;106870;1264;66262;-39
2024/03/02 05:39:51;;;;;;;49.60;28.40;;;;;;;1.40;76.70;99893.41;106846;1264;71391;-39
2024/03/02 05:42:19;;;;;;;50.20;28.90;;;;;;;1.48;76.37;99895.61;106859;1264;59924;-39
2024/03/02 05:44:47;;;;;;;46.00;29.80;;;;;;;1.55;76.27;99899.32;106158;1262;1003750;-39
2024/03/02 05:47:14;;;;;;;48.50;29.30;;;;;;;1.57;75.99;99899.61;106936;1263;73053;-39
2024/03/02 05:49:43;;;;;;;52.20;29.90;;;;;;;1.58;75.87;99901.74;106881;1263;66661;-39
2024/03/02 05:52:11;;;;;;;53.20;30.00;;;;;;;1.60;75.89;99897.54;106911;1264;71068;-39
2024/03/02 05:54:39;;;;;;;48.00;29.30;;;;;;;1.67;75.72;99894.95;106905;1264;60325;-39
2024/03/02 06:00:07;;;;;;;51.00;30.20;;;;;;;1.74;75.53;99901.30;106651;1263;73074;-39
2024/03/02 06:02:45;;;;;;;51.00;29.80;;;;;;;1.78;75.65;99896.56;106908;1264;66604;-39
2024/03/02 06:05:12;;;;;;;47.80;28.50;;;;;;;1.86;75.45;99896.13;106855;1264;72767;-39
2024/03/02 06:07:40;;;;;;;45.20;28.50;;;;;;;1.94;75.44;99897.35;106861;1264;59462;-39
2024/03/02 06:10:08;;;;;;;45.80;29.10;;;;;;;2.01;75.52;99899.17;106850;1264;60178;-39
2024/03/02 06:12:40;;;;;;;49.30;29.70;;;;;;;2.08;75.15;99896.23;106869;1264;73053;-39
2024/03/02 06:15:09;;;;;;;43.80;27.80;;;;;;;2.15;74.85;99896.35;106898;1264;67550;-39
2024/03/02 06:17:37;;;;;;;45.00;28.40;;;;;;;2.26;74.53;99897.42;106781;1263;72762;-39
2024/03/02 06:20:08;;;;;;;50.10;28.40;;;;;;;2.36;74.41;99896.60;106731;1264;59730;-39
2024/03/02 06:22:35;;;;;;;48.20;29.50;;;;;;;2.46;74.25;99898.54;106798;1263;60944;-39
2024/03/02 06:25:04;;;;;;;46.10;27.80;;;;;;;2.55;73.98;99901.33;106770;1264;72163;-39
2024/03/02 06:27:31;;;;;;;48.60;28.20;;;;;;;2.62;73.09;99902.13;106790;1263;67583;-39
2024/03/02 06:29:59;;;;;;;45.30;28.50;;;;;;;2.71;72.78;99900.00;106768;1268;72712;-39
2024/03/02 06:32:26;;;;;;;47.50;28.40;;;;;;;2.76;72.09;99896.58;106786;1266;59637;-39
2024/03/02 06:34:54;;;;;;;49.90;28.80;;;;;;;2.76;71.76;99896.73;106825;1263;60039;-40
2024/03/02 06:37:22;;;;;;;47.80;29.40;;;;;;;2.76;71.52;99892.58;106799;1264;71780;-40
2024/03/02 06:39:49;;;;;;;46.50;28.80;;;;;;;2.74;71.54;99897.44;106818;1263;67898;-39
2024/03/02 06:42:17;;;;;;;44.70;27.20;;;;;;;2.76;71.67;99898.46;106818;1266;72712;-40
2024/03/02 06:44:44;;;;;;;46.90;28.10;;;;;;;2.80;71.63;99894.52;107249;1263;59653;-39
2024/03/02 06:47:13;;;;;;;46.90;28.80;;;;;;;2.82;71.61;99891.34;107270;1257;59672;-40
2024/03/02 06:49:40;;;;;;;47.30;29.10;;;;;;;2.84;71.23;99891.90;107246;1256;73221;-39
2024/03/02 06:52:08;;;;;;;50.30;28.40;;;;;;;2.87;70.93;99892.22;107292;1257;68241;-40
2024/03/02 06:54:36;;;;;;;45.00;27.90;;;;;;;2.91;70.72;99889.73;107287;1257;72750;-40
2024/03/02 06:57:04;;;;;;;50.60;27.10;;;;;;;2.96;70.50;99885.93;107243;1257;59733;-40
2024/03/02 06:59:33;;;;;;;48.90;28.50;;;;;;;2.99;70.04;99885.73;107249;1257;60050;-40
2024/03/02 07:02:01;;;;;;;48.30;28.40;;;;;;;3.02;69.98;99887.81;107281;1257;73560;-40
2024/03/02 07:04:29;;;;;;;51.40;28.60;;;;;;;3.09;69.54;99882.23;107296;1257;67598;-39
2024/03/02 07:06:56;;;;;;;46.90;27.90;;;;;;;3.20;69.11;99885.49;107240;1257;72667;-38
2024/03/02 07:09:24;;;;;;;46.40;28.60;;;;;;;3.29;68.54;99882.63;107277;1257;59631;-39
2024/03/02 07:11:52;;;;;;;50.20;28.50;;;;;;;3.32;68.33;99876.57;107339;1257;60028;-39
2024/03/02 07:14:19;;;;;;;54.00;29.70;;;;;;;3.46;68.50;99885.45;107264;1257;73062;-39
2024/03/02 07:16:47;;;;;;;49.80;29.10;;;;;;;3.58;67.73;99882.96;107235;1258;67872;-39
2024/03/02 07:19:14;;;;;;;56.20;30.10;;;;;;;3.71;67.06;99878.77;107240;1257;71107;-38
2024/03/02 07:21:42;;;;;;;53.70;27.50;;;;;;;3.83;67.12;99878.38;107258;1256;59634;-39
2024/03/02 07:24:13;;;;;;;49.50;28.90;;;;;;;3.94;66.32;99883.88;107187;1257;60028;-39
2024/03/02 07:26:40;;;;;;;48.90;29.10;;;;;;;4.03;65.81;99882.73;107237;1257;73028;-39
2024/03/02 07:29:12;;;;;;;52.90;30.00;;;;;;;4.13;65.67;99882.55;107267;1257;66416;-39
2024/03/02 07:31:40;;;;;;;52.10;29.20;;;;;;;4.25;65.74;99883.17;107200;1257;71363;-39
2024/03/02 07:34:07;;;;;;;52.70;27.80;;;;;;;4.42;64.42;99881.15;107152;1256;60900;-38
2024/03/02 07:36:36;;;;;;;50.20;28.50;;;;;;;4.56;63.87;99883.42;107307;1261;60016;-39
2024/03/02 07:39:04;;;;;;;50.60;27.80;;;;;;;4.69;62.71;99878.60;107241;1258;73037;-39
2024/03/02 07:41:32;;;;;;;47.30;27.00;;;;;;;4.80;62.30;99879.33;107268;1256;66283;-39
2024/03/02 07:44:00;;;;;;;54.40;28.50;;;;;;;4.92;61.63;99882.42;107195;1257;72708;-39
2024/03/02 07:46:27;;;;;;;49.60;27.40;;;;;;;5.02;61.74;99879.88;107194;1257;59703;-39
2024/03/02 07:48:55;;;;;;;46.10;26.40;;;;;;;5.12;61.06;99881.05;107253;1256;59530;-39
2024/03/02 07:51:22;;;;;;;45.60;26.20;;;;;;;5.21;60.41;99888.88;107148;1261;73032;-38
2024/03/02 07:53:50;;;;;;;42.80;25.60;;;;;;;5.24;59.11;99881.64;107214;1257;67603;-39
2024/03/02 07:56:22;;;;;;;45.50;24.40;;;;;;;5.25;58.28;99884.15;107182;1257;71428;-39
2024/03/02 07:58:49;;;;;;;42.50;25.70;;;;;;;5.27;57.80;99885.14;107176;1257;59624;-39
2024/03/02 08:01:17;;;;;;;39.80;24.30;;;;;;;5.30;57.96;99881.83;107257;1256;60086;-39
2024/03/02 08:03:49;;;;;;;39.40;23.90;;;;;;;5.39;57.82;99878.80;107260;1258;73044;-39
2024/03/02 08:06:17;;;;;;;39.40;23.20;;;;;;;5.53;57.62;99879.04;107290;1257;66287;-39
2024/03/02 08:08:45;;;;;;;40.10;23.50;;;;;;;5.71;57.69;99875.94;106512;1257;1003666;-39
2024/03/02 08:11:12;;;;;;;34.20;21.30;;;;;;;5.94;57.30;99868.99;106518;1256;1003797;-39
2024/03/02 08:13:40;;;;;;;42.70;23.80;;;;;;;6.17;56.01;99868.34;107284;1257;60050;-39
2024/03/02 08:16:09;;;;;;;36.30;23.00;;;;;;;6.31;55.18;99861.67;107280;1263;71768;-40
2024/03/02 08:18:37;;;;;;;35.40;22.30;;;;;;;6.43;55.30;99868.66;105803;1256;1003146;-40
2024/03/02 08:21:04;;;;;;;33.70;22.40;;;;;;;6.59;55.07;99868.27;107246;1257;72729;-40
2024/03/02 08:23:32;;;;;;;35.80;21.80;;;;;;;6.78;54.49;99865.98;107248;1258;59667;-39
2024/03/02 08:26:00;;;;;;;32.10;21.80;;;;;;;6.93;54.67;99866.31;107246;1257;60114;-39
2024/03/02 08:28:27;;;;;;;36.20;21.90;;;;;;;7.09;53.49;99866.89;107244;1258;71808;-39
2024/03/02 08:30:54;;;;;;;38.00;22.10;;;;;;;7.17;53.42;99869.42;107234;1257;66309;-39
2024/03/02 08:33:22;;;;;;;38.20;22.90;;;;;;;7.21;53.19;99867.89;107248;1257;72683;-40
2024/03/02 08:35:50;;;;;;;34.50;21.60;;;;;;;7.27;52.82;99872.62;107282;1257;59692;-40
2024/03/02 08:38:17;;;;;;;33.10;20.90;;;;;;;7.40;52.41;99870.36;107240;1257;59688;-40
2024/03/02 08:40:45;;;;;;;35.70;21.20;;;;;;;7.59;52.33;99866.85;107216;1257;73126;-40
2024/03/02 08:43:12;;;;;;;33.10;21.30;;;;;;;7.82;51.96;99862.52;107218;1257;67554;-40
2024/03/02 08:45:40;;;;;;;33.10;21.90;;;;;;;8.08;51.32;99863.15;107206;1257;72679;-40
2024/03/02 08:48:11;;;;;;;33.40;21.10;;;;;;;8.30;50.21;99859.57;107198;1263;60324;-40
2024/03/02 08:50:38;;;;;;;30.70;19.80;;;;;;;8.41;49.44;99864.98;107219;1256;59182;-40
2024/03/02 08:53:06;;;;;;;34.80;20.80;;;;;;;8.51;49.26;99865.66;107261;1257;73884;-40
2024/03/02 08:55:33;;;;;;;31.10;20.10;;;;;;;8.60;49.13;99863.36;107348;1257;66299;-40
2024/03/02 08:58:01;;;;;;;31.90;18.20;;;;;;;8.73;48.46;99856.14;107271;1258;72674;-40
2024/03/02 09:00:29;;;;;;;30.80;18.00;;;;;;;8.83;47.45;99858.03;107217;1257;60409;-40
2024/03/02 09:02:57;;;;;;;31.10;17.70;;;;;;;8.84;47.36;99858.91;107301;1257;60431;-40
2024/03/02 09:05:24;;;;;;;28.40;17.50;;;;;;;8.88;47.25;99856.88;107236;1257;73854;-40
2024/03/02 09:07:52;;;;;;;29.50;15.90;;;;;;;8.95;46.88;99858.27;107279;1257;66309;-40
2024/03/02 09:10:19;;;;;;;33.00;17.50;;;;;;;9.02;46.47;99860.13;107233;1257;72722;-40
2024/03/02 09:12:47;;;;;;;28.40;16.40;;;;;;;9.09;46.57;99854.95;107225;1257;61863;-40
2024/03/02 09:15:15;;;;;;;26.90;17.20;;;;;;;9.15;46.00;99851.37;107212;1257;60305;-40
2024/03/02 09:17:43;;;;;;;24.50;15.30;;;;;;;9.23;45.92;99848.42;107238;1257;72590;-40
2024/03/02 09:20:11;;;;;;;22.00;14.40;;;;;;;9.35;45.23;99849.59;107295;1258;68338;-40
2024/03/02 09:22:39;;;;;;;23.20;14.70;;;;;;;9.49;44.37;99844.84;107269;1263;72523;-39
2024/03/02 09:25:08;;;;;;;22.30;15.10;;;;;;;9.60;44.29;99842.80;107303;1257;60463;-40
2024/03/02 09:27:37;;;;;;;25.00;15.30;;;;;;;9.69;44.03;99842.67;107376;1258;60363;-39
2024/03/02 09:30:10;;;;;;;25.70;16.50;;;;;;;9.78;44.33;99840.46;107282;1263;72752;-39
2024/03/02 09:32:37;;;;;;;27.60;16.40;;;;;;;9.94;43.91;99839.09;107304;1258;66615;-40
2024/03/02 09:35:06;;;;;;;24.70;15.90;;;;;;;10.06;42.98;99837.49;107258;1258;72667;-39
2024/03/02 09:37:34;;;;;;;25.60;16.10;;;;;;;10.09;43.01;99835.86;107240;1257;59359;-40
2024/03/02 09:40:02;;;;;;;29.00;16.10;;;;;;;10.12;42.69;99829.92;107279;1257;60508;-40
2024/03/02 09:42:30;;;;;;;23.20;16.00;;;;;;;10.18;42.56;99832.98;107333;1257;73998;-40
2024/03/02 09:44:57;;;;;;;24.00;15.70;;;;;;;10.26;41.91;99831.27;107264;1257;67616;-40
2024/03/02 09:47:25;;;;;;;23.40;16.00;;;;;;;10.27;41.93;99832.31;107237;1257;71607;-40
2024/03/02 09:49:53;;;;;;;27.90;16.40;;;;;;;10.28;42.32;99829.62;107132;1257;60464;-39
2024/03/02 09:52:23;;;;;;;26.30;17.60;;;;;;;10.32;42.26;99829.89;107346;1257;60321;-40
2024/03/02 09:54:51;;;;;;;26.70;17.30;;;;;;;10.40;42.53;99830.66;107315;1258;73845;-40
2024/03/02 09:57:18;;;;;;;26.20;17.20;;;;;;;10.54;42.82;99826.00;107115;1258;68682;-40
2024/03/02 09:59:46;;;;;;;27.80;18.40;;;;;;;10.69;42.55;99821.97;107289;1258;72660;-40
2024/03/02 10:02:13;;;;;;;27.20;18.20;;;;;;;10.80;42.05;99820.70;107260;1257;60338;-40
2024/03/02 10:04:41;;;;;;;28.70;18.00;;;;;;;10.82;41.84;99818.59;107265;1256;60373;-40
2024/03/02 10:07:16;;;;;;;26.70;17.60;;;;;;;10.86;41.92;99816.28;107295;1257;73040;-41
2024/03/02 10:09:48;;;;;;;28.90;18.50;;;;;;;11.00;41.41;99815.50;107272;1257;66443;-40
2024/03/02 10:12:16;;;;;;;30.20;18.90;;;;;;;11.07;41.45;99815.38;107284;1256;71864;-41
2024/03/02 10:14:44;;;;;;;28.00;18.00;;;;;;;11.10;41.27;99814.99;107290;1258;60332;-41
2024/03/02 10:17:13;;;;;;;29.40;17.40;;;;;;;11.09;40.54;99814.43;107288;1261;60255;-40
2024/03/02 10:19:40;;;;;;;26.20;17.80;;;;;;;11.08;40.54;99810.52;107268;1257;73833;-40
2024/03/02 10:22:08;;;;;;;27.80;17.70;;;;;;;11.13;40.41;99815.67;107260;1258;66594;-40
2024/03/02 10:24:41;;;;;;;25.20;17.20;;;;;;;11.20;40.14;99811.91;107132;1258;72718;-40
2024/03/02 10:27:15;;;;;;;26.40;17.90;;;;;;;11.20;39.78;99810.91;107183;1258;60481;-40
2024/03/02 10:29:46;;;;;;;26.40;17.90;;;;;;;11.22;40.09;99811.24;107169;1257;60476;-40
2024/03/02 10:32:13;;;;;;;30.50;18.20;;;;;;;11.31;40.22;99809.59;107223;1260;73820;-40
2024/03/02 10:34:42;;;;;;;26.10;18.20;;;;;;;11.49;39.95;99803.70;107239;1257;66448;-40
2024/03/02 10:37:13;;;;;;;28.10;18.90;;;;;;;11.65;39.43;99798.88;107307;1257;72739;-40
2024/03/02 10:39:40;;;;;;;30.90;19.60;;;;;;;11.73;39.69;99802.35;107268;1258;60402;-41
2024/03/02 10:42:09;;;;;;;26.70;19.10;;;;;;;11.77;39.33;99796.91;107233;1258;60401;-41
2024/03/02 10:44:37;;;;;;;26.30;19.70;;;;;;;11.79;39.28;99794.84;107251;1259;72712;-40
2024/03/02 10:47:05;;;;;;;28.70;21.00;;;;;;;11.82;38.85;99792.35;107297;1260;68341;-40
2024/03/02 10:49:33;;;;;;;31.40;21.80;;;;;;;11.85;38.79;99787.45;107276;1258;72769;-40
2024/03/02 10:52:01;;;;;;;30.20;21.70;;;;;;;11.88;39.22;99793.02;107271;1258;60466;-40
2024/03/02 10:54:35;;;;;;;33.30;22.00;;;;;;;11.92;38.40;99784.78;107187;1257;60149;-40
2024/03/02 10:57:05;;;;;;;33.40;22.20;;;;;;;11.94;37.95;99784.30;107285;1258;75011;-40
2024/03/02 10:59:34;;;;;;;32.70;22.30;;;;;;;11.96;37.86;99783.48;107078;1258;70142;-40
2024/03/02 11:02:03;;;;;;;30.10;21.70;;;;;;;12.02;37.45;99783.28;107279;1257;71474;-41
2024/03/02 11:04:34;;;;;;;31.00;19.80;;;;;;;12.11;36.47;99781.06;107218;1258;60543;-41
2024/03/02 11:07:05;;;;;;;26.10;18.90;;;;;;;12.32;35.79;99781.85;107134;1256;60490;-41
2024/03/02 11:09:41;;;;;;;30.70;20.30;;;;;;;12.56;36.24;99776.98;107239;1258;74172;-41
2024/03/02 11:12:29;;;;;;;29.20;20.20;;;;;;;12.72;35.32;99778.52;107157;1263;67562;-41
2024/03/02 11:14:56;;;;;;;34.20;24.50;;;;;;;12.77;35.12;99779.67;107266;1258;71460;-41
2024/03/02 11:17:24;;;;;;;30.60;19.50;;;;;;;12.79;35.33;99777.54;107278;1258;60278;-41
2024/03/02 11:19:51;;;;;;;32.10;20.90;;;;;;;12.73;35.88;99774.95;107268;1258;60321;-41
2024/03/02 11:22:19;;;;;;;25.40;18.40;;;;;;;12.54;35.90;99769.95;107065;1262;72742;-41
2024/03/02 11:24:51;;;;;;;26.50;18.40;;;;;;;12.31;35.75;99769.40;107077;1257;66396;-41
2024/03/02 11:27:45;;;;;;;22.80;16.70;;;;;;;12.26;35.58;99768.28;107309;1257;72789;-41
2024/03/02 11:30:31;;;;;;;24.70;17.30;;;;;;;12.38;35.09;99767.96;107251;1257;60452;-41